sensor_id;sensor_type;location;lat;lon;timestamp;temperature;humidity
61412;DHT22;47278;49.732;7.690;2023-08-06T00:02:17;14.60;99.90
61412;DHT22;47278;49.732;7.690;2023-08-06T00:04:43;14.70;99.90
61412;DHT22;47278;49.732;7.690;2023-08-06T00:07:08;14.70;99.90
61412;DHT22;47278;49.732;7.690;2023-08-06T00:09:34;14.70;99.90
61412;DHT22;47278;49.732;7.690;2023-08-06T00:11:59;16.00;99.90
61412;DHT22;47278;49.732;7.690;2023-08-06T00:14:25;14.70;99.90
61412;DHT22;47278;49.732;7.690;2023-08-06T00:16:50;14.80;99.90
61412;DHT22;47278;49.732;7.690;2023-08-06T00:19:16;14.80;99.90
61412;DHT22;47278;49.732;7.690;2023-08-06T00:21:41;14.80;99.90
61412;DHT22;47278;49.732;7.690;2023-08-06T00:24:07;14.80;99.90
61412;DHT22;47278;49.732;7.690;2023-08-06T00:26:33;14.80;99.90
61412;DHT22;47278;49.732;7.690;2023-08-06T00:28:58;14.80;99.90
61412;DHT22;47278;49.732;7.690;2023-08-06T00:31:24;14.70;99.90
61412;DHT22;47278;49.732;7.690;2023-08-06T00:33:49;14.70;99.90
61412;DHT22;47278;49.732;7.690;2023-08-06T00:36:15;14.70;99.90
61412;DHT22;47278;49.732;7.690;2023-08-06T00:38:40;14.60;99.90
61412;DHT22;47278;49.732;7.690;2023-08-06T00:41:06;14.70;99.90
61412;DHT22;47278;49.732;7.690;2023-08-06T00:43:31;14.70;99.90
61412;DHT22;47278;49.732;7.690;2023-08-06T00:45:57;14.80;99.90
61412;DHT22;47278;49.732;7.690;2023-08-06T00:48:22;14.80;99.90
61412;DHT22;47278;49.732;7.690;2023-08-06T00:50:48;14.90;99.90
61412;DHT22;47278;49.732;7.690;2023-08-06T00:53:14;15.00;99.90
61412;DHT22;47278;49.732;7.690;2023-08-06T00:55:39;15.00;99.90
61412;DHT22;47278;49.732;7.690;2023-08-06T00:58:05;15.00;99.90
61412;DHT22;47278;49.732;7.690;2023-08-06T01:00:30;15.00;99.90
61412;DHT22;47278;49.732;7.690;2023-08-06T01:02:56;15.00;99.90
61412;DHT22;47278;49.732;7.690;2023-08-06T01:05:22;15.00;99.90
61412;DHT22;47278;49.732;7.690;2023-08-06T01:16:13;12.50;99.90
61412;DHT22;47278;49.732;7.690;2023-08-06T01:18:39;14.70;99.90
61412;DHT22;47278;49.732;7.690;2023-08-06T01:21:07;14.80;99.90
61412;DHT22;47278;49.732;7.690;2023-08-06T01:23:32;14.80;99.90
61412;DHT22;47278;49.732;7.690;2023-08-06T01:28:53;14.90;99.90
61412;DHT22;47278;49.732;7.690;2023-08-06T01:31:22;14.90;99.90
61412;DHT22;47278;49.732;7.690;2023-08-06T01:33:49;14.90;99.90
61412;DHT22;47278;49.732;7.690;2023-08-06T01:36:16;15.10;99.90
61412;DHT22;47278;49.732;7.690;2023-08-06T01:38:42;15.20;99.90
61412;DHT22;47278;49.732;7.690;2023-08-06T01:41:07;15.10;99.90
61412;DHT22;47278;49.732;7.690;2023-08-06T01:43:33;15.30;99.90
61412;DHT22;47278;49.732;7.690;2023-08-06T01:45:58;15.40;99.90
61412;DHT22;47278;49.732;7.690;2023-08-06T01:48:24;15.40;99.90
61412;DHT22;47278;49.732;7.690;2023-08-06T01:50:49;15.30;99.90
61412;DHT22;47278;49.732;7.690;2023-08-06T01:53:15;15.30;99.90
61412;DHT22;47278;49.732;7.690;2023-08-06T01:55:47;15.10;99.90
61412;DHT22;47278;49.732;7.690;2023-08-06T01:58:12;15.10;99.90
61412;DHT22;47278;49.732;7.690;2023-08-06T02:00:38;15.20;99.90
61412;DHT22;47278;49.732;7.690;2023-08-06T02:03:03;15.10;99.90
61412;DHT22;47278;49.732;7.690;2023-08-06T02:05:29;15.10;99.90
61412;DHT22;47278;49.732;7.690;2023-08-06T02:07:55;15.10;99.90
61412;DHT22;47278;49.732;7.690;2023-08-06T02:10:20;15.10;99.90
61412;DHT22;47278;49.732;7.690;2023-08-06T02:12:46;15.20;99.90
61412;DHT22;47278;49.732;7.690;2023-08-06T02:15:11;15.10;99.90
61412;DHT22;47278;49.732;7.690;2023-08-06T02:17:37;15.10;99.90
61412;DHT22;47278;49.732;7.690;2023-08-06T02:20:02;15.10;99.90
61412;DHT22;47278;49.732;7.690;2023-08-06T02:22:28;15.10;99.90
61412;DHT22;47278;49.732;7.690;2023-08-06T02:24:53;15.10;99.90
61412;DHT22;47278;49.732;7.690;2023-08-06T02:27:19;15.10;99.90
61412;DHT22;47278;49.732;7.690;2023-08-06T02:29:44;15.10;99.90
61412;DHT22;47278;49.732;7.690;2023-08-06T02:32:10;15.10;99.90
61412;DHT22;47278;49.732;7.690;2023-08-06T02:34:35;15.10;99.90
61412;DHT22;47278;49.732;7.690;2023-08-06T02:37:01;15.10;99.90
61412;DHT22;47278;49.732;7.690;2023-08-06T02:39:26;15.20;99.90
61412;DHT22;47278;49.732;7.690;2023-08-06T02:41:52;15.30;99.90
61412;DHT22;47278;49.732;7.690;2023-08-06T02:44:17;15.30;99.90
61412;DHT22;47278;49.732;7.690;2023-08-06T02:46:44;15.30;99.90
61412;DHT22;47278;49.732;7.690;2023-08-06T02:49:09;15.20;99.90
61412;DHT22;47278;49.732;7.690;2023-08-06T02:51:35;15.20;99.90
61412;DHT22;47278;49.732;7.690;2023-08-06T02:54:01;15.20;99.90
61412;DHT22;47278;49.732;7.690;2023-08-06T02:56:26;15.20;99.90
61412;DHT22;47278;49.732;7.690;2023-08-06T02:58:52;15.10;99.90
61412;DHT22;47278;49.732;7.690;2023-08-06T03:01:17;15.10;99.90
61412;DHT22;47278;49.732;7.690;2023-08-06T03:03:43;15.10;99.90
61412;DHT22;47278;49.732;7.690;2023-08-06T03:06:08;15.10;99.90
61412;DHT22;47278;49.732;7.690;2023-08-06T03:08:34;15.10;99.90
61412;DHT22;47278;49.732;7.690;2023-08-06T03:11:00;15.10;99.90
61412;DHT22;47278;49.732;7.690;2023-08-06T03:13:25;15.10;99.90
61412;DHT22;47278;49.732;7.690;2023-08-06T03:15:58;15.10;99.90
61412;DHT22;47278;49.732;7.690;2023-08-06T03:18:24;15.10;99.90
61412;DHT22;47278;49.732;7.690;2023-08-06T03:20:51;15.00;99.90
61412;DHT22;47278;49.732;7.690;2023-08-06T03:23:17;15.10;99.90
61412;DHT22;47278;49.732;7.690;2023-08-06T03:25:43;15.00;99.90
61412;DHT22;47278;49.732;7.690;2023-08-06T03:28:08;15.00;99.90
61412;DHT22;47278;49.732;7.690;2023-08-06T03:30:34;15.00;99.90
61412;DHT22;47278;49.732;7.690;2023-08-06T03:32:59;15.00;99.90
61412;DHT22;47278;49.732;7.690;2023-08-06T03:35:25;15.00;99.90
61412;DHT22;47278;49.732;7.690;2023-08-06T03:37:50;14.90;99.90
61412;DHT22;47278;49.732;7.690;2023-08-06T03:40:16;14.90;99.90
61412;DHT22;47278;49.732;7.690;2023-08-06T03:42:41;14.80;99.90
61412;DHT22;47278;49.732;7.690;2023-08-06T03:45:07;14.80;99.90
61412;DHT22;47278;49.732;7.690;2023-08-06T03:47:33;14.70;99.90
61412;DHT22;47278;49.732;7.690;2023-08-06T03:49:58;14.70;99.90
61412;DHT22;47278;49.732;7.690;2023-08-06T03:52:24;14.70;99.90
61412;DHT22;47278;49.732;7.690;2023-08-06T03:54:49;14.70;99.90
61412;DHT22;47278;49.732;7.690;2023-08-06T03:57:15;14.70;99.90
61412;DHT22;47278;49.732;7.690;2023-08-06T03:59:41;14.70;99.90
61412;DHT22;47278;49.732;7.690;2023-08-06T04:02:06;14.60;99.90
61412;DHT22;47278;49.732;7.690;2023-08-06T04:04:32;14.60;99.90
61412;DHT22;47278;49.732;7.690;2023-08-06T04:06:58;14.60;99.90
61412;DHT22;47278;49.732;7.690;2023-08-06T04:09:23;14.60;99.90
61412;DHT22;47278;49.732;7.690;2023-08-06T04:11:49;14.60;99.90
61412;DHT22;47278;49.732;7.690;2023-08-06T04:14:14;14.60;99.90
61412;DHT22;47278;49.732;7.690;2023-08-06T04:16:40;14.60;99.90
61412;DHT22;47278;49.732;7.690;2023-08-06T04:19:05;14.60;99.90
61412;DHT22;47278;49.732;7.690;2023-08-06T04:21:31;14.60;99.90
61412;DHT22;47278;49.732;7.690;2023-08-06T04:23:56;14.70;99.90
61412;DHT22;47278;49.732;7.690;2023-08-06T04:26:22;14.70;99.90
61412;DHT22;47278;49.732;7.690;2023-08-06T04:28:47;14.60;99.90
61412;DHT22;47278;49.732;7.690;2023-08-06T04:31:14;14.60;99.90
61412;DHT22;47278;49.732;7.690;2023-08-06T04:33:39;14.60;99.90
61412;DHT22;47278;49.732;7.690;2023-08-06T04:36:05;14.60;99.90
61412;DHT22;47278;49.732;7.690;2023-08-06T04:38:31;14.60;99.90
61412;DHT22;47278;49.732;7.690;2023-08-06T04:40:57;14.60;99.90
61412;DHT22;47278;49.732;7.690;2023-08-06T04:43:23;14.50;99.90
61412;DHT22;47278;49.732;7.690;2023-08-06T04:45:53;14.50;99.90
61412;DHT22;47278;49.732;7.690;2023-08-06T04:48:18;14.50;99.90
61412;DHT22;47278;49.732;7.690;2023-08-06T04:50:44;14.50;99.90
61412;DHT22;47278;49.732;7.690;2023-08-06T04:53:10;14.50;99.90
61412;DHT22;47278;49.732;7.690;2023-08-06T04:55:36;14.50;99.90
61412;DHT22;47278;49.732;7.690;2023-08-06T04:58:01;14.50;99.90
61412;DHT22;47278;49.732;7.690;2023-08-06T05:00:27;14.50;99.90
61412;DHT22;47278;49.732;7.690;2023-08-06T05:02:52;14.50;99.90
61412;DHT22;47278;49.732;7.690;2023-08-06T05:05:18;14.50;99.90
61412;DHT22;47278;49.732;7.690;2023-08-06T05:07:45;14.50;99.90
61412;DHT22;47278;49.732;7.690;2023-08-06T05:10:10;14.50;99.90
61412;DHT22;47278;49.732;7.690;2023-08-06T05:12:36;14.50;99.90
61412;DHT22;47278;49.732;7.690;2023-08-06T05:15:01;14.50;99.90
61412;DHT22;47278;49.732;7.690;2023-08-06T05:17:27;14.50;99.90
61412;DHT22;47278;49.732;7.690;2023-08-06T05:19:52;14.60;99.90
61412;DHT22;47278;49.732;7.690;2023-08-06T05:22:18;14.50;99.90
61412;DHT22;47278;49.732;7.690;2023-08-06T05:24:44;14.50;99.90
61412;DHT22;47278;49.732;7.690;2023-08-06T05:27:09;14.50;99.90
61412;DHT22;47278;49.732;7.690;2023-08-06T05:29:35;14.50;99.90
61412;DHT22;47278;49.732;7.690;2023-08-06T05:32:00;14.50;99.90
61412;DHT22;47278;49.732;7.690;2023-08-06T05:34:26;14.50;99.90
61412;DHT22;47278;49.732;7.690;2023-08-06T05:36:51;14.50;99.90
61412;DHT22;47278;49.732;7.690;2023-08-06T05:39:18;14.60;99.90
61412;DHT22;47278;49.732;7.690;2023-08-06T05:41:43;14.50;99.90
61412;DHT22;47278;49.732;7.690;2023-08-06T05:44:09;14.50;99.90
61412;DHT22;47278;49.732;7.690;2023-08-06T05:46:34;14.50;99.90
61412;DHT22;47278;49.732;7.690;2023-08-06T05:49:00;14.50;99.90
61412;DHT22;47278;49.732;7.690;2023-08-06T05:51:26;14.50;99.90
61412;DHT22;47278;49.732;7.690;2023-08-06T05:53:52;14.60;99.90
61412;DHT22;47278;49.732;7.690;2023-08-06T05:56:17;14.60;99.90
61412;DHT22;47278;49.732;7.690;2023-08-06T05:58:43;14.60;99.90
61412;DHT22;47278;49.732;7.690;2023-08-06T06:01:08;14.70;99.90
61412;DHT22;47278;49.732;7.690;2023-08-06T06:03:34;14.80;99.90
61412;DHT22;47278;49.732;7.690;2023-08-06T06:06:00;14.80;99.90
61412;DHT22;47278;49.732;7.690;2023-08-06T06:08:26;14.90;99.90
61412;DHT22;47278;49.732;7.690;2023-08-06T06:10:52;14.90;99.90
61412;DHT22;47278;49.732;7.690;2023-08-06T06:13:17;14.90;99.90
61412;DHT22;47278;49.732;7.690;2023-08-06T06:15:43;14.80;99.90
61412;DHT22;47278;49.732;7.690;2023-08-06T06:18:08;14.90;99.90
61412;DHT22;47278;49.732;7.690;2023-08-06T06:20:34;14.90;99.90
61412;DHT22;47278;49.732;7.690;2023-08-06T06:22:59;15.00;99.90
61412;DHT22;47278;49.732;7.690;2023-08-06T06:25:25;15.00;99.90
61412;DHT22;47278;49.732;7.690;2023-08-06T06:27:50;15.10;99.90
61412;DHT22;47278;49.732;7.690;2023-08-06T06:30:16;15.30;99.90
61412;DHT22;47278;49.732;7.690;2023-08-06T06:32:42;15.20;99.90
61412;DHT22;47278;49.732;7.690;2023-08-06T06:35:07;15.40;99.90
61412;DHT22;47278;49.732;7.690;2023-08-06T06:37:33;15.50;99.90
61412;DHT22;47278;49.732;7.690;2023-08-06T06:39:59;15.50;99.90
61412;DHT22;47278;49.732;7.690;2023-08-06T06:42:24;15.50;99.90
61412;DHT22;47278;49.732;7.690;2023-08-06T06:44:50;15.50;99.90
61412;DHT22;47278;49.732;7.690;2023-08-06T06:47:15;15.40;99.90
61412;DHT22;47278;49.732;7.690;2023-08-06T06:49:41;15.40;99.90
61412;DHT22;47278;49.732;7.690;2023-08-06T06:52:06;15.40;99.90
61412;DHT22;47278;49.732;7.690;2023-08-06T06:54:32;15.40;99.90
61412;DHT22;47278;49.732;7.690;2023-08-06T06:56:58;15.40;99.90
61412;DHT22;47278;49.732;7.690;2023-08-06T06:59:23;15.40;99.90
61412;DHT22;47278;49.732;7.690;2023-08-06T07:01:49;15.50;99.90
61412;DHT22;47278;49.732;7.690;2023-08-06T07:04:14;15.70;99.90
61412;DHT22;47278;49.732;7.690;2023-08-06T07:06:40;15.80;99.90
61412;DHT22;47278;49.732;7.690;2023-08-06T07:09:05;15.90;99.90
61412;DHT22;47278;49.732;7.690;2023-08-06T07:11:31;15.80;99.90
61412;DHT22;47278;49.732;7.690;2023-08-06T07:13:57;15.90;99.90
61412;DHT22;47278;49.732;7.690;2023-08-06T07:16:25;16.10;99.90
61412;DHT22;47278;49.732;7.690;2023-08-06T07:18:51;16.30;99.90
61412;DHT22;47278;49.732;7.690;2023-08-06T07:21:18;16.40;99.90
61412;DHT22;47278;49.732;7.690;2023-08-06T07:23:43;16.50;99.90
61412;DHT22;47278;49.732;7.690;2023-08-06T07:26:09;16.40;99.90
61412;DHT22;47278;49.732;7.690;2023-08-06T07:28:34;16.40;99.90
61412;DHT22;47278;49.732;7.690;2023-08-06T07:31:00;16.30;99.90
61412;DHT22;47278;49.732;7.690;2023-08-06T07:33:27;16.20;99.90
61412;DHT22;47278;49.732;7.690;2023-08-06T07:35:53;16.10;99.90
61412;DHT22;47278;49.732;7.690;2023-08-06T07:38:18;14.10;99.90
61412;DHT22;47278;49.732;7.690;2023-08-06T07:40:44;16.30;99.90
61412;DHT22;47278;49.732;7.690;2023-08-06T07:43:10;16.50;99.90
61412;DHT22;47278;49.732;7.690;2023-08-06T07:45:35;16.50;99.90
61412;DHT22;47278;49.732;7.690;2023-08-06T07:48:01;16.50;99.90
61412;DHT22;47278;49.732;7.690;2023-08-06T07:50:27;16.30;99.90
61412;DHT22;47278;49.732;7.690;2023-08-06T07:52:52;16.30;99.90
61412;DHT22;47278;49.732;7.690;2023-08-06T07:55:18;16.20;99.90
61412;DHT22;47278;49.732;7.690;2023-08-06T07:57:43;16.20;99.90
61412;DHT22;47278;49.732;7.690;2023-08-06T08:00:09;16.20;99.90
61412;DHT22;47278;49.732;7.690;2023-08-06T08:02:35;16.20;99.90
61412;DHT22;47278;49.732;7.690;2023-08-06T08:05:00;16.20;99.90
61412;DHT22;47278;49.732;7.690;2023-08-06T08:07:26;16.30;99.90
61412;DHT22;47278;49.732;7.690;2023-08-06T08:09:54;16.40;99.90
61412;DHT22;47278;49.732;7.690;2023-08-06T08:12:19;16.40;99.90
61412;DHT22;47278;49.732;7.690;2023-08-06T08:14:45;16.50;99.90
61412;DHT22;47278;49.732;7.690;2023-08-06T08:17:11;16.60;99.90
61412;DHT22;47278;49.732;7.690;2023-08-06T08:19:37;16.60;99.90
61412;DHT22;47278;49.732;7.690;2023-08-06T08:22:02;16.60;99.90
61412;DHT22;47278;49.732;7.690;2023-08-06T08:24:28;16.60;99.90
61412;DHT22;47278;49.732;7.690;2023-08-06T08:26:56;16.60;99.90
61412;DHT22;47278;49.732;7.690;2023-08-06T08:29:21;16.50;99.90
61412;DHT22;47278;49.732;7.690;2023-08-06T08:31:50;16.60;99.90
61412;DHT22;47278;49.732;7.690;2023-08-06T08:34:16;17.10;99.90
61412;DHT22;47278;49.732;7.690;2023-08-06T08:36:42;16.60;99.90
61412;DHT22;47278;49.732;7.690;2023-08-06T08:39:08;16.60;99.90
61412;DHT22;47278;49.732;7.690;2023-08-06T08:41:34;16.50;99.90
61412;DHT22;47278;49.732;7.690;2023-08-06T08:44:00;16.50;99.90
61412;DHT22;47278;49.732;7.690;2023-08-06T08:46:27;16.40;99.90
61412;DHT22;47278;49.732;7.690;2023-08-06T08:48:53;16.30;99.90
61412;DHT22;47278;49.732;7.690;2023-08-06T08:51:18;16.20;99.90
61412;DHT22;47278;49.732;7.690;2023-08-06T08:53:44;16.20;99.90
61412;DHT22;47278;49.732;7.690;2023-08-06T08:56:11;16.30;99.90
61412;DHT22;47278;49.732;7.690;2023-08-06T08:58:38;16.30;99.90
61412;DHT22;47278;49.732;7.690;2023-08-06T09:01:03;16.50;99.90
61412;DHT22;47278;49.732;7.690;2023-08-06T09:03:29;16.70;99.90
61412;DHT22;47278;49.732;7.690;2023-08-06T09:05:56;16.90;99.90
61412;DHT22;47278;49.732;7.690;2023-08-06T09:08:23;16.70;99.90
61412;DHT22;47278;49.732;7.690;2023-08-06T09:10:49;16.60;99.90
61412;DHT22;47278;49.732;7.690;2023-08-06T09:13:15;16.40;99.90
61412;DHT22;47278;49.732;7.690;2023-08-06T09:15:41;16.20;99.90
61412;DHT22;47278;49.732;7.690;2023-08-06T09:18:12;16.20;99.90
61412;DHT22;47278;49.732;7.690;2023-08-06T09:20:38;16.20;99.90
61412;DHT22;47278;49.732;7.690;2023-08-06T09:23:07;16.20;99.90
61412;DHT22;47278;49.732;7.690;2023-08-06T09:25:33;16.10;99.90
61412;DHT22;47278;49.732;7.690;2023-08-06T09:28:01;16.00;99.90
61412;DHT22;47278;49.732;7.690;2023-08-06T09:30:29;15.90;99.90
61412;DHT22;47278;49.732;7.690;2023-08-06T09:32:55;16.00;99.90
61412;DHT22;47278;49.732;7.690;2023-08-06T09:35:21;16.10;99.90
61412;DHT22;47278;49.732;7.690;2023-08-06T09:37:47;16.10;99.90
61412;DHT22;47278;49.732;7.690;2023-08-06T09:42:51;16.20;99.90
61412;DHT22;47278;49.732;7.690;2023-08-06T09:45:17;16.30;99.90
61412;DHT22;47278;49.732;7.690;2023-08-06T09:47:42;16.20;99.90
61412;DHT22;47278;49.732;7.690;2023-08-06T09:50:17;16.30;99.90
61412;DHT22;47278;49.732;7.690;2023-08-06T09:52:44;16.20;99.90
61412;DHT22;47278;49.732;7.690;2023-08-06T09:55:13;16.10;99.90
61412;DHT22;47278;49.732;7.690;2023-08-06T09:57:41;16.10;99.90
61412;DHT22;47278;49.732;7.690;2023-08-06T10:00:08;16.20;99.90
61412;DHT22;47278;49.732;7.690;2023-08-06T10:02:35;16.20;99.90
61412;DHT22;47278;49.732;7.690;2023-08-06T10:05:02;16.20;99.90
61412;DHT22;47278;49.732;7.690;2023-08-06T10:07:28;16.30;99.90
61412;DHT22;47278;49.732;7.690;2023-08-06T10:09:54;16.40;99.90
61412;DHT22;47278;49.732;7.690;2023-08-06T10:12:20;16.40;99.90
61412;DHT22;47278;49.732;7.690;2023-08-06T10:14:46;16.40;99.90
61412;DHT22;47278;49.732;7.690;2023-08-06T10:17:13;16.40;99.90
61412;DHT22;47278;49.732;7.690;2023-08-06T10:19:38;16.30;99.90
61412;DHT22;47278;49.732;7.690;2023-08-06T10:27:39;16.50;99.90
61412;DHT22;47278;49.732;7.690;2023-08-06T10:30:24;16.70;99.90
61412;DHT22;47278;49.732;7.690;2023-08-06T10:32:51;16.90;99.90
61412;DHT22;47278;49.732;7.690;2023-08-06T10:35:36;16.90;99.90
61412;DHT22;47278;49.732;7.690;2023-08-06T10:38:12;17.00;99.90
61412;DHT22;47278;49.732;7.690;2023-08-06T10:40:39;17.30;99.90
61412;DHT22;47278;49.732;7.690;2023-08-06T10:43:05;17.30;99.90
61412;DHT22;47278;49.732;7.690;2023-08-06T10:45:35;17.30;99.90
61412;DHT22;47278;49.732;7.690;2023-08-06T10:48:01;17.20;99.90
61412;DHT22;47278;49.732;7.690;2023-08-06T10:50:26;17.10;99.90
61412;DHT22;47278;49.732;7.690;2023-08-06T10:52:52;17.00;99.90
61412;DHT22;47278;49.732;7.690;2023-08-06T10:55:24;16.80;99.90
61412;DHT22;47278;49.732;7.690;2023-08-06T10:57:50;16.70;99.90
61412;DHT22;47278;49.732;7.690;2023-08-06T11:00:16;16.60;99.90
61412;DHT22;47278;49.732;7.690;2023-08-06T11:02:42;16.70;99.90
61412;DHT22;47278;49.732;7.690;2023-08-06T11:05:09;17.00;99.90
61412;DHT22;47278;49.732;7.690;2023-08-06T11:07:35;17.00;99.90
61412;DHT22;47278;49.732;7.690;2023-08-06T11:10:02;17.20;99.90
61412;DHT22;47278;49.732;7.690;2023-08-06T11:12:28;17.10;99.90
61412;DHT22;47278;49.732;7.690;2023-08-06T11:14:53;17.20;99.90
61412;DHT22;47278;49.732;7.690;2023-08-06T11:17:19;17.30;99.90
61412;DHT22;47278;49.732;7.690;2023-08-06T11:19:44;17.20;99.90
61412;DHT22;47278;49.732;7.690;2023-08-06T11:22:10;17.30;99.90
61412;DHT22;47278;49.732;7.690;2023-08-06T11:24:37;17.20;99.90
61412;DHT22;47278;49.732;7.690;2023-08-06T11:27:02;17.10;99.90
61412;DHT22;47278;49.732;7.690;2023-08-06T11:29:39;17.00;99.90
61412;DHT22;47278;49.732;7.690;2023-08-06T11:32:05;19.80;99.90
61412;DHT22;47278;49.732;7.690;2023-08-06T11:34:30;17.00;99.90
61412;DHT22;47278;49.732;7.690;2023-08-06T11:36:56;17.00;99.90
61412;DHT22;47278;49.732;7.690;2023-08-06T11:39:22;17.00;99.90
61412;DHT22;47278;49.732;7.690;2023-08-06T11:41:48;17.00;99.90
61412;DHT22;47278;49.732;7.690;2023-08-06T11:44:13;16.90;99.90
61412;DHT22;47278;49.732;7.690;2023-08-06T11:46:55;17.00;99.90
61412;DHT22;47278;49.732;7.690;2023-08-06T11:54:37;16.80;99.90
61412;DHT22;47278;49.732;7.690;2023-08-06T11:57:03;16.90;99.90
61412;DHT22;47278;49.732;7.690;2023-08-06T11:59:30;16.70;99.90
61412;DHT22;47278;49.732;7.690;2023-08-06T12:01:55;15.20;99.90
61412;DHT22;47278;49.732;7.690;2023-08-06T12:04:21;16.70;99.90
61412;DHT22;47278;49.732;7.690;2023-08-06T12:06:46;16.80;99.90
61412;DHT22;47278;49.732;7.690;2023-08-06T12:09:12;16.90;99.90
61412;DHT22;47278;49.732;7.690;2023-08-06T12:11:38;16.90;99.90
61412;DHT22;47278;49.732;7.690;2023-08-06T12:14:03;16.80;99.90
61412;DHT22;47278;49.732;7.690;2023-08-06T12:16:29;16.80;99.90
61412;DHT22;47278;49.732;7.690;2023-08-06T12:18:54;16.70;99.90
61412;DHT22;47278;49.732;7.690;2023-08-06T12:21:20;16.70;99.90
61412;DHT22;47278;49.732;7.690;2023-08-06T12:23:45;16.70;99.90
61412;DHT22;47278;49.732;7.690;2023-08-06T12:26:11;16.70;99.90
61412;DHT22;47278;49.732;7.690;2023-08-06T12:28:36;16.70;99.90
61412;DHT22;47278;49.732;7.690;2023-08-06T12:31:02;16.70;99.90
61412;DHT22;47278;49.732;7.690;2023-08-06T12:33:27;19.30;99.90
61412;DHT22;47278;49.732;7.690;2023-08-06T12:35:53;16.60;99.90
61412;DHT22;47278;49.732;7.690;2023-08-06T12:38:20;16.70;99.90
61412;DHT22;47278;49.732;7.690;2023-08-06T12:40:45;16.70;99.90
61412;DHT22;47278;49.732;7.690;2023-08-06T12:43:11;16.70;99.90
61412;DHT22;47278;49.732;7.690;2023-08-06T12:45:36;16.70;99.90
61412;DHT22;47278;49.732;7.690;2023-08-06T12:48:02;16.60;99.90
61412;DHT22;47278;49.732;7.690;2023-08-06T12:50:28;16.70;99.90
61412;DHT22;47278;49.732;7.690;2023-08-06T12:52:54;16.60;99.90
61412;DHT22;47278;49.732;7.690;2023-08-06T12:55:20;16.60;99.90
61412;DHT22;47278;49.732;7.690;2023-08-06T12:57:45;16.60;99.90
61412;DHT22;47278;49.732;7.690;2023-08-06T13:00:11;16.70;99.90
61412;DHT22;47278;49.732;7.690;2023-08-06T13:02:36;16.60;99.90
61412;DHT22;47278;49.732;7.690;2023-08-06T13:05:02;16.60;99.90
61412;DHT22;47278;49.732;7.690;2023-08-06T13:07:31;16.60;99.90
61412;DHT22;47278;49.732;7.690;2023-08-06T13:09:56;16.70;99.90
61412;DHT22;47278;49.732;7.690;2023-08-06T13:12:22;16.50;99.90
61412;DHT22;47278;49.732;7.690;2023-08-06T13:14:48;16.50;99.90
61412;DHT22;47278;49.732;7.690;2023-08-06T13:17:14;16.50;99.90
61412;DHT22;47278;49.732;7.690;2023-08-06T13:19:39;16.50;99.90
61412;DHT22;47278;49.732;7.690;2023-08-06T13:22:05;16.50;99.90
61412;DHT22;47278;49.732;7.690;2023-08-06T13:24:32;16.60;99.90
61412;DHT22;47278;49.732;7.690;2023-08-06T13:26:57;16.40;99.90
61412;DHT22;47278;49.732;7.690;2023-08-06T13:29:24;16.50;99.90
61412;DHT22;47278;49.732;7.690;2023-08-06T13:31:50;16.60;99.90
61412;DHT22;47278;49.732;7.690;2023-08-06T13:34:15;16.60;99.90
61412;DHT22;47278;49.732;7.690;2023-08-06T13:36:42;16.50;99.90
61412;DHT22;47278;49.732;7.690;2023-08-06T13:39:07;16.60;99.90
61412;DHT22;47278;49.732;7.690;2023-08-06T13:41:33;16.70;99.90
61412;DHT22;47278;49.732;7.690;2023-08-06T13:43:59;16.70;99.90
61412;DHT22;47278;49.732;7.690;2023-08-06T13:46:24;16.80;99.90
61412;DHT22;47278;49.732;7.690;2023-08-06T13:48:50;16.80;99.90
61412;DHT22;47278;49.732;7.690;2023-08-06T13:51:18;16.80;99.90
61412;DHT22;47278;49.732;7.690;2023-08-06T13:53:44;17.00;99.90
61412;DHT22;47278;49.732;7.690;2023-08-06T13:56:10;17.10;99.90
61412;DHT22;47278;49.732;7.690;2023-08-06T13:58:36;17.10;99.90
61412;DHT22;47278;49.732;7.690;2023-08-06T14:01:02;17.10;99.90
61412;DHT22;47278;49.732;7.690;2023-08-06T14:03:27;17.20;99.90
61412;DHT22;47278;49.732;7.690;2023-08-06T14:05:53;17.20;99.90
61412;DHT22;47278;49.732;7.690;2023-08-06T14:08:22;17.30;99.90
61412;DHT22;47278;49.732;7.690;2023-08-06T14:10:48;17.40;99.90
61412;DHT22;47278;49.732;7.690;2023-08-06T14:13:14;17.40;99.90
61412;DHT22;47278;49.732;7.690;2023-08-06T14:15:39;17.50;99.90
61412;DHT22;47278;49.732;7.690;2023-08-06T14:18:06;17.50;99.90
61412;DHT22;47278;49.732;7.690;2023-08-06T14:20:34;17.50;99.90
61412;DHT22;47278;49.732;7.690;2023-08-06T14:22:59;17.60;99.90
61412;DHT22;47278;49.732;7.690;2023-08-06T14:25:25;17.70;99.90
61412;DHT22;47278;49.732;7.690;2023-08-06T14:27:50;17.70;99.90
61412;DHT22;47278;49.732;7.690;2023-08-06T14:30:16;17.50;99.90
61412;DHT22;47278;49.732;7.690;2023-08-06T14:32:41;17.60;99.90
61412;DHT22;47278;49.732;7.690;2023-08-06T14:35:07;17.40;99.90
61412;DHT22;47278;49.732;7.690;2023-08-06T14:37:33;17.40;99.90
61412;DHT22;47278;49.732;7.690;2023-08-06T14:39:58;17.50;99.90
61412;DHT22;47278;49.732;7.690;2023-08-06T14:42:24;17.60;99.90
61412;DHT22;47278;49.732;7.690;2023-08-06T14:44:49;17.70;99.90
61412;DHT22;47278;49.732;7.690;2023-08-06T14:47:15;17.50;99.90
61412;DHT22;47278;49.732;7.690;2023-08-06T14:49:41;17.50;99.90
61412;DHT22;47278;49.732;7.690;2023-08-06T14:52:06;17.30;99.90
61412;DHT22;47278;49.732;7.690;2023-08-06T14:54:32;17.30;99.90
61412;DHT22;47278;49.732;7.690;2023-08-06T14:56:57;17.40;99.90
61412;DHT22;47278;49.732;7.690;2023-08-06T14:59:23;17.20;99.90
61412;DHT22;47278;49.732;7.690;2023-08-06T15:01:48;17.20;99.90
61412;DHT22;47278;49.732;7.690;2023-08-06T15:04:14;17.20;99.90
61412;DHT22;47278;49.732;7.690;2023-08-06T15:06:40;17.10;99.90
61412;DHT22;47278;49.732;7.690;2023-08-06T15:09:06;17.20;99.90
61412;DHT22;47278;49.732;7.690;2023-08-06T15:11:32;17.10;99.90
61412;DHT22;47278;49.732;7.690;2023-08-06T15:13:58;17.10;99.90
61412;DHT22;47278;49.732;7.690;2023-08-06T15:16:26;17.20;99.90
61412;DHT22;47278;49.732;7.690;2023-08-06T15:18:51;17.20;99.90
61412;DHT22;47278;49.732;7.690;2023-08-06T15:21:17;17.40;99.90
61412;DHT22;47278;49.732;7.690;2023-08-06T15:23:42;17.30;99.90
61412;DHT22;47278;49.732;7.690;2023-08-06T15:26:08;17.20;99.90
61412;DHT22;47278;49.732;7.690;2023-08-06T15:28:34;17.20;99.90
61412;DHT22;47278;49.732;7.690;2023-08-06T15:31:00;17.00;99.90
61412;DHT22;47278;49.732;7.690;2023-08-06T15:33:26;17.00;99.90
61412;DHT22;47278;49.732;7.690;2023-08-06T15:35:52;17.20;99.90
61412;DHT22;47278;49.732;7.690;2023-08-06T15:38:17;17.20;99.90
61412;DHT22;47278;49.732;7.690;2023-08-06T15:40:43;16.90;99.90
61412;DHT22;47278;49.732;7.690;2023-08-06T15:43:12;17.00;99.90
61412;DHT22;47278;49.732;7.690;2023-08-06T15:45:37;16.80;99.90
61412;DHT22;47278;49.732;7.690;2023-08-06T15:48:03;16.80;99.90